sensor_id;sensor_type;location;lat;lon;timestamp;temperature;humidity
80676;SHT30;70041;46.088;18.268;2024-01-15T00:01:59;0.36;81.07
80676;SHT30;70041;46.088;18.268;2024-01-15T00:04:24;0.43;81.65
80676;SHT30;70041;46.088;18.268;2024-01-15T00:06:50;0.49;80.52
80676;SHT30;70041;46.088;18.268;2024-01-15T00:09:15;0.54;80.08
80676;SHT30;70041;46.088;18.268;2024-01-15T00:11:42;0.39;80.63
80676;SHT30;70041;46.088;18.268;2024-01-15T00:14:08;0.15;82.04
80676;SHT30;70041;46.088;18.268;2024-01-15T00:16:33;0.02;82.64
80676;SHT30;70041;46.088;18.268;2024-01-15T00:18:59;0.09;82.32
80676;SHT30;70041;46.088;18.268;2024-01-15T00:21:24;0.07;82.38
80676;SHT30;70041;46.088;18.268;2024-01-15T00:23:50;0.09;82.05
80676;SHT30;70041;46.088;18.268;2024-01-15T00:26:15;0.10;82.16
80676;SHT30;70041;46.088;18.268;2024-01-15T00:28:40;0.15;81.93
80676;SHT30;70041;46.088;18.268;2024-01-15T00:31:06;0.22;81.70
80676;SHT30;70041;46.088;18.268;2024-01-15T00:33:31;0.26;81.34
80676;SHT30;70041;46.088;18.268;2024-01-15T00:35:56;0.23;82.21
80676;SHT30;70041;46.088;18.268;2024-01-15T00:38:22;0.22;82.62
80676;SHT30;70041;46.088;18.268;2024-01-15T00:40:48;0.25;82.91
80676;SHT30;70041;46.088;18.268;2024-01-15T00:43:13;0.17;82.98
80676;SHT30;70041;46.088;18.268;2024-01-15T00:45:39;0.16;83.23
80676;SHT30;70041;46.088;18.268;2024-01-15T00:48:04;0.19;83.25
80676;SHT30;70041;46.088;18.268;2024-01-15T00:50:30;0.16;83.51
80676;SHT30;70041;46.088;18.268;2024-01-15T00:52:55;0.19;82.79
80676;SHT30;70041;46.088;18.268;2024-01-15T00:55:21;0.12;82.41
80676;SHT30;70041;46.088;18.268;2024-01-15T00:57:46;0.07;82.88
80676;SHT30;70041;46.088;18.268;2024-01-15T01:00:12;0.09;83.39
80676;SHT30;70041;46.088;18.268;2024-01-15T01:02:38;0.17;83.12
80676;SHT30;70041;46.088;18.268;2024-01-15T01:05:03;0.20;83.37
80676;SHT30;70041;46.088;18.268;2024-01-15T01:07:29;0.33;82.55
80676;SHT30;70041;46.088;18.268;2024-01-15T01:09:55;0.57;81.70
80676;SHT30;70041;46.088;18.268;2024-01-15T01:12:20;0.67;81.61
80676;SHT30;70041;46.088;18.268;2024-01-15T01:14:45;0.83;81.30
80676;SHT30;70041;46.088;18.268;2024-01-15T01:17:11;1.01;80.44
80676;SHT30;70041;46.088;18.268;2024-01-15T01:19:36;0.95;79.97
80676;SHT30;70041;46.088;18.268;2024-01-15T01:22:02;0.76;80.69
80676;SHT30;70041;46.088;18.268;2024-01-15T01:24:27;0.67;81.74
80676;SHT30;70041;46.088;18.268;2024-01-15T01:26:53;0.78;81.08
80676;SHT30;70041;46.088;18.268;2024-01-15T01:29:18;0.71;81.48
80676;SHT30;70041;46.088;18.268;2024-01-15T01:31:44;0.64;81.92
80676;SHT30;70041;46.088;18.268;2024-01-15T01:34:10;0.66;82.56
80676;SHT30;70041;46.088;18.268;2024-01-15T01:36:36;0.70;82.63
80676;SHT30;70041;46.088;18.268;2024-01-15T01:39:01;0.73;81.04
80676;SHT30;70041;46.088;18.268;2024-01-15T01:41:26;0.64;81.78
80676;SHT30;70041;46.088;18.268;2024-01-15T01:43:52;0.67;82.53
80676;SHT30;70041;46.088;18.268;2024-01-15T01:46:17;0.85;82.30
80676;SHT30;70041;46.088;18.268;2024-01-15T01:48:43;0.70;81.55
80676;SHT30;70041;46.088;18.268;2024-01-15T01:51:09;0.83;81.83
80676;SHT30;70041;46.088;18.268;2024-01-15T01:53:36;0.87;81.46
80676;SHT30;70041;46.088;18.268;2024-01-15T01:56:02;1.00;82.38
80676;SHT30;70041;46.088;18.268;2024-01-15T01:58:29;1.08;82.61
80676;SHT30;70041;46.088;18.268;2024-01-15T02:00:56;1.28;82.13
80676;SHT30;70041;46.088;18.268;2024-01-15T02:03:22;1.45;81.76
80676;SHT30;70041;46.088;18.268;2024-01-15T02:05:48;1.53;81.44
80676;SHT30;70041;46.088;18.268;2024-01-15T02:08:14;1.59;81.33
80676;SHT30;70041;46.088;18.268;2024-01-15T02:10:40;1.66;81.30
80676;SHT30;70041;46.088;18.268;2024-01-15T02:13:05;1.74;80.59
80676;SHT30;70041;46.088;18.268;2024-01-15T02:15:31;1.79;79.72
80676;SHT30;70041;46.088;18.268;2024-01-15T02:18:00;1.90;79.68
80676;SHT30;70041;46.088;18.268;2024-01-15T02:20:25;1.92;79.48
80676;SHT30;70041;46.088;18.268;2024-01-15T02:22:51;2.02;79.16
80676;SHT30;70041;46.088;18.268;2024-01-15T02:25:17;1.97;79.16
80676;SHT30;70041;46.088;18.268;2024-01-15T02:27:43;1.94;79.95
80676;SHT30;70041;46.088;18.268;2024-01-15T02:30:11;1.96;80.58
80676;SHT30;70041;46.088;18.268;2024-01-15T02:32:37;1.99;80.12
80676;SHT30;70041;46.088;18.268;2024-01-15T02:35:02;1.93;80.74
80676;SHT30;70041;46.088;18.268;2024-01-15T02:37:28;1.93;80.66
80676;SHT30;70041;46.088;18.268;2024-01-15T02:39:53;1.90;81.14
80676;SHT30;70041;46.088;18.268;2024-01-15T02:42:18;1.97;80.46
80676;SHT30;70041;46.088;18.268;2024-01-15T02:44:44;1.96;80.69
80676;SHT30;70041;46.088;18.268;2024-01-15T02:47:09;1.97;80.72
80676;SHT30;70041;46.088;18.268;2024-01-15T02:49:34;1.96;80.82
80676;SHT30;70041;46.088;18.268;2024-01-15T02:52:00;1.99;81.00
80676;SHT30;70041;46.088;18.268;2024-01-15T02:54:25;1.93;80.87
80676;SHT30;70041;46.088;18.268;2024-01-15T02:56:51;1.89;81.29
80676;SHT30;70041;46.088;18.268;2024-01-15T02:59:16;1.70;80.74
80676;SHT30;70041;46.088;18.268;2024-01-15T03:01:41;1.64;80.78
80676;SHT30;70041;46.088;18.268;2024-01-15T03:04:07;1.59;81.70
80676;SHT30;70041;46.088;18.268;2024-01-15T03:06:32;1.72;81.97
80676;SHT30;70041;46.088;18.268;2024-01-15T03:08:58;1.73;81.75
80676;SHT30;70041;46.088;18.268;2024-01-15T03:11:23;1.72;82.02
80676;SHT30;70041;46.088;18.268;2024-01-15T03:13:48;1.76;82.09
80676;SHT30;70041;46.088;18.268;2024-01-15T03:16:14;1.82;82.30
80676;SHT30;70041;46.088;18.268;2024-01-15T03:18:39;1.84;81.98
80676;SHT30;70041;46.088;18.268;2024-01-15T03:21:05;1.84;82.35
80676;SHT30;70041;46.088;18.268;2024-01-15T03:23:30;1.84;82.49
80676;SHT30;70041;46.088;18.268;2024-01-15T03:25:56;1.97;82.19
80676;SHT30;70041;46.088;18.268;2024-01-15T03:28:21;2.07;81.69
80676;SHT30;70041;46.088;18.268;2024-01-15T03:30:47;1.96;80.89
80676;SHT30;70041;46.088;18.268;2024-01-15T03:33:12;1.84;81.59
80676;SHT30;70041;46.088;18.268;2024-01-15T03:35:37;1.80;82.13
80676;SHT30;70041;46.088;18.268;2024-01-15T03:38:03;1.76;82.37
80676;SHT30;70041;46.088;18.268;2024-01-15T03:40:28;1.74;82.55
80676;SHT30;70041;46.088;18.268;2024-01-15T03:42:54;1.69;82.50
80676;SHT30;70041;46.088;18.268;2024-01-15T03:45:19;1.62;82.27
80676;SHT30;70041;46.088;18.268;2024-01-15T03:47:45;1.63;82.77
80676;SHT30;70041;46.088;18.268;2024-01-15T03:50:12;1.58;82.95
80676;SHT30;70041;46.088;18.268;2024-01-15T03:52:37;1.55;83.35
80676;SHT30;70041;46.088;18.268;2024-01-15T03:55:04;1.62;83.83
80676;SHT30;70041;46.088;18.268;2024-01-15T03:57:30;1.69;83.76
80676;SHT30;70041;46.088;18.268;2024-01-15T03:59:55;1.74;83.17
80676;SHT30;70041;46.088;18.268;2024-01-15T04:02:20;1.82;83.33
80676;SHT30;70041;46.088;18.268;2024-01-15T04:04:46;1.86;83.23
80676;SHT30;70041;46.088;18.268;2024-01-15T04:07:11;1.86;83.17
80676;SHT30;70041;46.088;18.268;2024-01-15T04:09:37;1.92;83.32
80676;SHT30;70041;46.088;18.268;2024-01-15T04:12:02;1.99;83.38
80676;SHT30;70041;46.088;18.268;2024-01-15T04:14:28;2.11;83.41
80676;SHT30;70041;46.088;18.268;2024-01-15T04:16:54;2.13;82.21
80676;SHT30;70041;46.088;18.268;2024-01-15T04:19:20;2.23;82.20
80676;SHT30;70041;46.088;18.268;2024-01-15T04:21:45;2.34;82.05
80676;SHT30;70041;46.088;18.268;2024-01-15T04:24:11;2.42;82.25
80676;SHT30;70041;46.088;18.268;2024-01-15T04:26:36;2.49;81.76
80676;SHT30;70041;46.088;18.268;2024-01-15T04:29:02;2.54;81.63
80676;SHT30;70041;46.088;18.268;2024-01-15T04:31:27;2.61;81.57
80676;SHT30;70041;46.088;18.268;2024-01-15T04:33:52;2.56;81.55
80676;SHT30;70041;46.088;18.268;2024-01-15T04:36:18;2.55;82.01
80676;SHT30;70041;46.088;18.268;2024-01-15T04:38:43;2.62;82.35
80676;SHT30;70041;46.088;18.268;2024-01-15T04:41:16;2.62;81.86
80676;SHT30;70041;46.088;18.268;2024-01-15T04:43:41;2.58;82.15
80676;SHT30;70041;46.088;18.268;2024-01-15T04:46:07;2.54;82.48
80676;SHT30;70041;46.088;18.268;2024-01-15T04:48:32;2.58;82.70
80676;SHT30;70041;46.088;18.268;2024-01-15T04:50:58;2.65;82.40
80676;SHT30;70041;46.088;18.268;2024-01-15T04:53:23;2.79;82.04
80676;SHT30;70041;46.088;18.268;2024-01-15T04:55:49;2.86;81.55
80676;SHT30;70041;46.088;18.268;2024-01-15T04:58:14;2.86;81.84
80676;SHT30;70041;46.088;18.268;2024-01-15T05:00:39;2.81;82.14
80676;SHT30;70041;46.088;18.268;2024-01-15T05:03:05;2.85;82.13
80676;SHT30;70041;46.088;18.268;2024-01-15T05:05:30;2.88;82.13
80676;SHT30;70041;46.088;18.268;2024-01-15T05:07:56;2.84;82.06
80676;SHT30;70041;46.088;18.268;2024-01-15T05:10:21;2.86;82.08
80676;SHT30;70041;46.088;18.268;2024-01-15T05:12:46;2.91;82.21
80676;SHT30;70041;46.088;18.268;2024-01-15T05:15:12;2.86;82.08
80676;SHT30;70041;46.088;18.268;2024-01-15T05:17:37;2.84;82.13
80676;SHT30;70041;46.088;18.268;2024-01-15T05:20:03;2.82;82.38
80676;SHT30;70041;46.088;18.268;2024-01-15T05:22:29;2.82;82.26
80676;SHT30;70041;46.088;18.268;2024-01-15T05:24:55;2.89;82.34
80676;SHT30;70041;46.088;18.268;2024-01-15T05:27:20;2.99;81.97
80676;SHT30;70041;46.088;18.268;2024-01-15T05:29:45;2.95;81.66
80676;SHT30;70041;46.088;18.268;2024-01-15T05:32:11;3.05;81.48
80676;SHT30;70041;46.088;18.268;2024-01-15T05:34:36;3.13;80.67
80676;SHT30;70041;46.088;18.268;2024-01-15T05:37:02;3.22;80.00
80676;SHT30;70041;46.088;18.268;2024-01-15T05:39:27;3.31;79.53
80676;SHT30;70041;46.088;18.268;2024-01-15T05:41:52;3.34;79.51
80676;SHT30;70041;46.088;18.268;2024-01-15T05:44:18;3.31;79.85
80676;SHT30;70041;46.088;18.268;2024-01-15T05:46:43;3.40;79.05
80676;SHT30;70041;46.088;18.268;2024-01-15T05:49:09;3.46;78.84
80676;SHT30;70041;46.088;18.268;2024-01-15T05:51:34;3.46;78.52
80676;SHT30;70041;46.088;18.268;2024-01-15T05:53:59;3.38;78.93
80676;SHT30;70041;46.088;18.268;2024-01-15T05:59:46;3.34;79.10
80676;SHT30;70041;46.088;18.268;2024-01-15T06:02:12;3.34;79.22
80676;SHT30;70041;46.088;18.268;2024-01-15T06:04:37;3.33;79.28
80676;SHT30;70041;46.088;18.268;2024-01-15T06:07:03;3.43;79.36
80676;SHT30;70041;46.088;18.268;2024-01-15T06:09:28;3.51;79.14
80676;SHT30;70041;46.088;18.268;2024-01-15T06:11:54;3.51;79.61
80676;SHT30;70041;46.088;18.268;2024-01-15T06:14:20;3.50;80.00
80676;SHT30;70041;46.088;18.268;2024-01-15T06:16:45;3.41;80.23
80676;SHT30;70041;46.088;18.268;2024-01-15T06:19:10;3.31;81.01
80676;SHT30;70041;46.088;18.268;2024-01-15T06:21:36;3.23;81.45
80676;SHT30;70041;46.088;18.268;2024-01-15T06:24:01;3.23;81.38
80676;SHT30;70041;46.088;18.268;2024-01-15T06:26:27;3.22;81.36
80676;SHT30;70041;46.088;18.268;2024-01-15T06:28:52;3.23;81.61
80676;SHT30;70041;46.088;18.268;2024-01-15T06:31:17;3.26;81.51
80676;SHT30;70041;46.088;18.268;2024-01-15T06:33:43;3.17;81.99
80676;SHT30;70041;46.088;18.268;2024-01-15T06:36:10;3.23;82.36
80676;SHT30;70041;46.088;18.268;2024-01-15T06:38:36;3.17;81.91
80676;SHT30;70041;46.088;18.268;2024-01-15T06:41:01;3.09;82.54
80676;SHT30;70041;46.088;18.268;2024-01-15T06:43:27;3.09;82.47
80676;SHT30;70041;46.088;18.268;2024-01-15T06:45:52;3.12;82.70
80676;SHT30;70041;46.088;18.268;2024-01-15T06:48:17;3.19;82.46
80676;SHT30;70041;46.088;18.268;2024-01-15T06:50:43;3.17;82.58
80676;SHT30;70041;46.088;18.268;2024-01-15T06:53:08;3.17;82.65
80676;SHT30;70041;46.088;18.268;2024-01-15T06:55:34;3.24;82.09
80676;SHT30;70041;46.088;18.268;2024-01-15T06:57:59;3.29;81.66
80676;SHT30;70041;46.088;18.268;2024-01-15T07:00:25;3.43;80.81
80676;SHT30;70041;46.088;18.268;2024-01-15T07:02:51;3.38;81.38
80676;SHT30;70041;46.088;18.268;2024-01-15T07:05:17;3.46;80.85
80676;SHT30;70041;46.088;18.268;2024-01-15T07:07:42;3.70;79.82
80676;SHT30;70041;46.088;18.268;2024-01-15T07:10:08;3.71;80.42
80676;SHT30;70041;46.088;18.268;2024-01-15T07:12:33;3.66;80.76
80676;SHT30;70041;46.088;18.268;2024-01-15T07:14:59;3.63;81.30
80676;SHT30;70041;46.088;18.268;2024-01-15T07:17:25;3.61;81.44
80676;SHT30;70041;46.088;18.268;2024-01-15T07:19:50;3.64;81.28
80676;SHT30;70041;46.088;18.268;2024-01-15T07:22:15;3.57;81.38
80676;SHT30;70041;46.088;18.268;2024-01-15T07:24:42;3.47;81.71
80676;SHT30;70041;46.088;18.268;2024-01-15T07:27:08;3.43;81.92
80676;SHT30;70041;46.088;18.268;2024-01-15T07:29:34;3.47;82.29
80676;SHT30;70041;46.088;18.268;2024-01-15T07:32:03;3.48;81.80
80676;SHT30;70041;46.088;18.268;2024-01-15T07:34:28;3.43;82.09
80676;SHT30;70041;46.088;18.268;2024-01-15T07:36:54;3.47;82.24
80676;SHT30;70041;46.088;18.268;2024-01-15T07:39:20;3.58;82.14
80676;SHT30;70041;46.088;18.268;2024-01-15T07:41:45;3.58;82.20
80676;SHT30;70041;46.088;18.268;2024-01-15T07:44:11;3.64;81.91
80676;SHT30;70041;46.088;18.268;2024-01-15T07:46:36;3.74;81.66
80676;SHT30;70041;46.088;18.268;2024-01-15T07:49:02;3.78;81.55
80676;SHT30;70041;46.088;18.268;2024-01-15T07:51:28;3.77;81.85
80676;SHT30;70041;46.088;18.268;2024-01-15T07:53:54;3.77;81.93
80676;SHT30;70041;46.088;18.268;2024-01-15T07:56:21;3.74;82.35
80676;SHT30;70041;46.088;18.268;2024-01-15T07:58:46;3.78;82.65
80676;SHT30;70041;46.088;18.268;2024-01-15T08:01:12;3.80;82.07
80676;SHT30;70041;46.088;18.268;2024-01-15T08:03:37;3.92;80.90
80676;SHT30;70041;46.088;18.268;2024-01-15T08:06:03;4.02;80.07
80676;SHT30;70041;46.088;18.268;2024-01-15T08:08:29;4.08;79.95
80676;SHT30;70041;46.088;18.268;2024-01-15T08:10:54;4.21;78.94
80676;SHT30;70041;46.088;18.268;2024-01-15T08:13:20;4.31;78.49
80676;SHT30;70041;46.088;18.268;2024-01-15T08:15:46;4.38;78.20
80676;SHT30;70041;46.088;18.268;2024-01-15T08:18:12;4.48;77.47
80676;SHT30;70041;46.088;18.268;2024-01-15T08:20:38;4.49;77.46
80676;SHT30;70041;46.088;18.268;2024-01-15T08:23:04;4.49;77.49
80676;SHT30;70041;46.088;18.268;2024-01-15T08:25:30;4.54;77.76
80676;SHT30;70041;46.088;18.268;2024-01-15T08:27:56;4.62;77.33
80676;SHT30;70041;46.088;18.268;2024-01-15T08:30:23;4.70;78.66
80676;SHT30;70041;46.088;18.268;2024-01-15T08:32:56;4.72;78.74
80676;SHT30;70041;46.088;18.268;2024-01-15T08:35:21;4.81;76.84
80676;SHT30;70041;46.088;18.268;2024-01-15T08:37:52;4.90;76.43
80676;SHT30;70041;46.088;18.268;2024-01-15T08:40:18;5.00;75.88
80676;SHT30;70041;46.088;18.268;2024-01-15T08:42:44;5.07;76.69
80676;SHT30;70041;46.088;18.268;2024-01-15T08:45:10;5.01;77.70
80676;SHT30;70041;46.088;18.268;2024-01-15T08:47:36;4.93;77.91
80676;SHT30;70041;46.088;18.268;2024-01-15T08:50:02;4.88;78.68
80676;SHT30;70041;46.088;18.268;2024-01-15T08:52:29;4.85;79.27
80676;SHT30;70041;46.088;18.268;2024-01-15T08:54:56;4.79;79.51
80676;SHT30;70041;46.088;18.268;2024-01-15T08:57:22;4.79;79.60
80676;SHT30;70041;46.088;18.268;2024-01-15T08:59:47;4.80;79.44
80676;SHT30;70041;46.088;18.268;2024-01-15T09:02:13;4.73;79.16
80676;SHT30;70041;46.088;18.268;2024-01-15T09:04:38;4.62;78.77
80676;SHT30;70041;46.088;18.268;2024-01-15T09:07:04;4.67;79.19
80676;SHT30;70041;46.088;18.268;2024-01-15T09:09:29;4.57;79.17
80676;SHT30;70041;46.088;18.268;2024-01-15T09:11:55;4.66;79.17
80676;SHT30;70041;46.088;18.268;2024-01-15T09:14:20;4.63;78.45
80676;SHT30;70041;46.088;18.268;2024-01-15T09:16:47;4.73;79.49
80676;SHT30;70041;46.088;18.268;2024-01-15T09:19:12;4.72;79.82
80676;SHT30;70041;46.088;18.268;2024-01-15T09:21:38;4.59;80.14
80676;SHT30;70041;46.088;18.268;2024-01-15T09:24:04;4.62;79.16
80676;SHT30;70041;46.088;18.268;2024-01-15T09:26:29;4.79;79.50
80676;SHT30;70041;46.088;18.268;2024-01-15T09:28:55;4.97;79.43
80676;SHT30;70041;46.088;18.268;2024-01-15T09:31:20;5.17;79.15
80676;SHT30;70041;46.088;18.268;2024-01-15T09:33:46;5.24;78.80
80676;SHT30;70041;46.088;18.268;2024-01-15T09:36:12;5.18;79.25
80676;SHT30;70041;46.088;18.268;2024-01-15T09:38:37;5.23;79.60
80676;SHT30;70041;46.088;18.268;2024-01-15T09:41:05;5.10;80.68
80676;SHT30;70041;46.088;18.268;2024-01-15T09:43:31;5.03;81.10
80676;SHT30;70041;46.088;18.268;2024-01-15T09:45:57;4.93;81.89
80676;SHT30;70041;46.088;18.268;2024-01-15T09:48:22;4.87;82.00
80676;SHT30;70041;46.088;18.268;2024-01-15T09:50:48;4.79;82.42
80676;SHT30;70041;46.088;18.268;2024-01-15T09:53:15;4.74;82.91
80676;SHT30;70041;46.088;18.268;2024-01-15T09:55:41;4.62;83.37
80676;SHT30;70041;46.088;18.268;2024-01-15T09:58:06;4.52;84.49
80676;SHT30;70041;46.088;18.268;2024-01-15T10:00:33;4.40;85.07
80676;SHT30;70041;46.088;18.268;2024-01-15T10:03:03;4.45;84.71
80676;SHT30;70041;46.088;18.268;2024-01-15T10:05:28;4.49;84.60
80676;SHT30;70041;46.088;18.268;2024-01-15T10:07:56;4.53;84.45
80676;SHT30;70041;46.088;18.268;2024-01-15T10:10:22;4.52;84.63
80676;SHT30;70041;46.088;18.268;2024-01-15T10:12:48;4.46;84.58
80676;SHT30;70041;46.088;18.268;2024-01-15T10:15:14;4.50;84.43
80676;SHT30;70041;46.088;18.268;2024-01-15T10:17:39;4.38;84.89
80676;SHT30;70041;46.088;18.268;2024-01-15T10:20:12;4.28;85.02
80676;SHT30;70041;46.088;18.268;2024-01-15T10:22:41;4.28;85.32
80676;SHT30;70041;46.088;18.268;2024-01-15T10:25:14;4.22;85.37
80676;SHT30;70041;46.088;18.268;2024-01-15T10:27:43;4.28;85.09
80676;SHT30;70041;46.088;18.268;2024-01-15T10:30:10;4.19;85.42
80676;SHT30;70041;46.088;18.268;2024-01-15T10:32:35;4.06;85.83
80676;SHT30;70041;46.088;18.268;2024-01-15T10:35:01;4.06;85.87
80676;SHT30;70041;46.088;18.268;2024-01-15T10:37:27;3.91;86.15
80676;SHT30;70041;46.088;18.268;2024-01-15T10:39:52;3.75;86.83
80676;SHT30;70041;46.088;18.268;2024-01-15T10:42:18;3.61;86.12
80676;SHT30;70041;46.088;18.268;2024-01-15T10:44:44;3.51;85.77
80676;SHT30;70041;46.088;18.268;2024-01-15T10:47:12;3.34;86.43
80676;SHT30;70041;46.088;18.268;2024-01-15T10:49:37;3.33;86.88
80676;SHT30;70041;46.088;18.268;2024-01-15T10:52:03;3.30;87.84
80676;SHT30;70041;46.088;18.268;2024-01-15T10:54:29;3.38;87.78
80676;SHT30;70041;46.088;18.268;2024-01-15T10:56:56;3.41;87.78
80676;SHT30;70041;46.088;18.268;2024-01-15T10:59:21;3.37;87.45
80676;SHT30;70041;46.088;18.268;2024-01-15T11:01:51;3.29;86.27
80676;SHT30;70041;46.088;18.268;2024-01-15T11:04:20;3.12;85.82
80676;SHT30;70041;46.088;18.268;2024-01-15T11:06:50;3.02;86.19
80676;SHT30;70041;46.088;18.268;2024-01-15T11:09:15;2.93;86.99
80676;SHT30;70041;46.088;18.268;2024-01-15T11:11:47;2.85;87.40
80676;SHT30;70041;46.088;18.268;2024-01-15T11:17:00;2.81;88.03
80676;SHT30;70041;46.088;18.268;2024-01-15T11:19:25;2.81;87.94
80676;SHT30;70041;46.088;18.268;2024-01-15T11:21:51;2.86;88.38
80676;SHT30;70041;46.088;18.268;2024-01-15T11:24:39;2.82;88.46
80676;SHT30;70041;46.088;18.268;2024-01-15T11:27:09;2.85;88.13
80676;SHT30;70041;46.088;18.268;2024-01-15T11:29:35;2.74;88.07
80676;SHT30;70041;46.088;18.268;2024-01-15T11:32:02;2.74;88.73
80676;SHT30;70041;46.088;18.268;2024-01-15T11:37:18;2.81;89.02
80676;SHT30;70041;46.088;18.268;2024-01-15T11:39:44;2.81;88.69
80676;SHT30;70041;46.088;18.268;2024-01-15T11:42:11;2.84;88.97
80676;SHT30;70041;46.088;18.268;2024-01-15T11:44:37;2.92;88.20
80676;SHT30;70041;46.088;18.268;2024-01-15T11:47:07;2.92;87.73
80676;SHT30;70041;46.088;18.268;2024-01-15T11:52:21;2.97;87.73
80676;SHT30;70041;46.088;18.268;2024-01-15T11:54:58;3.06;86.85
80676;SHT30;70041;46.088;18.268;2024-01-15T11:59:58;3.17;88.09
80676;SHT30;70041;46.088;18.268;2024-01-15T12:02:24;3.19;87.60
80676;SHT30;70041;46.088;18.268;2024-01-15T12:04:49;3.12;88.06
80676;SHT30;70041;46.088;18.268;2024-01-15T12:07:14;3.05;88.71
80676;SHT30;70041;46.088;18.268;2024-01-15T12:09:44;3.10;88.85
80676;SHT30;70041;46.088;18.268;2024-01-15T12:12:15;3.10;88.07
80676;SHT30;70041;46.088;18.268;2024-01-15T12:14:41;3.24;88.49
80676;SHT30;70041;46.088;18.268;2024-01-15T12:17:07;3.33;88.31
80676;SHT30;70041;46.088;18.268;2024-01-15T12:19:32;3.38;87.51
80676;SHT30;70041;46.088;18.268;2024-01-15T12:21:58;3.36;87.87
80676;SHT30;70041;46.088;18.268;2024-01-15T12:24:23;3.31;88.43
80676;SHT30;70041;46.088;18.268;2024-01-15T12:26:49;3.34;87.49
80676;SHT30;70041;46.088;18.268;2024-01-15T12:29:17;3.34;87.78
80676;SHT30;70041;46.088;18.268;2024-01-15T12:31:46;3.24;88.44
80676;SHT30;70041;46.088;18.268;2024-01-15T12:34:11;3.26;88.39
80676;SHT30;70041;46.088;18.268;2024-01-15T12:36:37;3.33;87.99
80676;SHT30;70041;46.088;18.268;2024-01-15T12:39:02;3.34;87.98
80676;SHT30;70041;46.088;18.268;2024-01-15T12:41:28;3.36;88.28
80676;SHT30;70041;46.088;18.268;2024-01-15T12:43:53;3.34;88.67
80676;SHT30;70041;46.088;18.268;2024-01-15T12:46:19;3.34;88.39
80676;SHT30;70041;46.088;18.268;2024-01-15T12:48:44;3.44;88.15
80676;SHT30;70041;46.088;18.268;2024-01-15T12:51:10;3.48;86.49
80676;SHT30;70041;46.088;18.268;2024-01-15T12:53:35;3.54;85.53
80676;SHT30;70041;46.088;18.268;2024-01-15T12:56:01;3.61;85.05
80676;SHT30;70041;46.088;18.268;2024-01-15T12:58:26;3.53;85.04
80676;SHT30;70041;46.088;18.268;2024-01-15T13:00:52;3.50;86.05
80676;SHT30;70041;46.088;18.268;2024-01-15T13:03:17;3.54;86.62
80676;SHT30;70041;46.088;18.268;2024-01-15T13:05:43;3.48;85.71
80676;SHT30;70041;46.088;18.268;2024-01-15T13:08:08;3.56;85.23
80676;SHT30;70041;46.088;18.268;2024-01-15T13:10:34;3.48;85.09
80676;SHT30;70041;46.088;18.268;2024-01-15T13:12:59;3.56;84.48
80676;SHT30;70041;46.088;18.268;2024-01-15T13:15:25;3.47;85.14
80676;SHT30;70041;46.088;18.268;2024-01-15T13:17:50;3.43;84.33
80676;SHT30;70041;46.088;18.268;2024-01-15T13:20:15;3.40;83.97
80676;SHT30;70041;46.088;18.268;2024-01-15T13:22:41;3.40;84.19
80676;SHT30;70041;46.088;18.268;2024-01-15T13:25:08;3.38;84.18
80676;SHT30;70041;46.088;18.268;2024-01-15T13:27:34;3.43;84.26
80676;SHT30;70041;46.088;18.268;2024-01-15T13:30:03;3.44;84.38
80676;SHT30;70041;46.088;18.268;2024-01-15T13:32:29;3.44;85.70
80676;SHT30;70041;46.088;18.268;2024-01-15T13:34:56;3.41;86.54
80676;SHT30;70041;46.088;18.268;2024-01-15T13:37:21;3.40;86.19
80676;SHT30;70041;46.088;18.268;2024-01-15T13:39:48;3.46;85.86
80676;SHT30;70041;46.088;18.268;2024-01-15T13:42:14;3.50;86.34
80676;SHT30;70041;46.088;18.268;2024-01-15T13:44:40;3.56;86.85
80676;SHT30;70041;46.088;18.268;2024-01-15T13:47:06;3.57;86.74
80676;SHT30;70041;46.088;18.268;2024-01-15T13:49:31;3.60;86.87
80676;SHT30;70041;46.088;18.268;2024-01-15T13:51:59;3.58;87.03
80676;SHT30;70041;46.088;18.268;2024-01-15T13:54:24;3.61;87.21
80676;SHT30;70041;46.088;18.268;2024-01-15T13:56:49;3.66;87.50
80676;SHT30;70041;46.088;18.268;2024-01-15T13:59:15;3.67;87.91
80676;SHT30;70041;46.088;18.268;2024-01-15T14:01:40;3.71;87.87
80676;SHT30;70041;46.088;18.268;2024-01-15T14:04:07;3.80;87.43
80676;SHT30;70041;46.088;18.268;2024-01-15T14:06:32;3.75;87.05
80676;SHT30;70041;46.088;18.268;2024-01-15T14:08:58;3.70;87.38
80676;SHT30;70041;46.088;18.268;2024-01-15T14:11:23;3.68;87.64
80676;SHT30;70041;46.088;18.268;2024-01-15T14:13:49;3.63;87.58
80676;SHT30;70041;46.088;18.268;2024-01-15T14:16:14;3.60;87.96
80676;SHT30;70041;46.088;18.268;2024-01-15T14:18:39;3.54;88.31
80676;SHT30;70041;46.088;18.268;2024-01-15T14:21:05;3.50;88.35
80676;SHT30;70041;46.088;18.268;2024-01-15T14:23:30;3.51;88.32
80676;SHT30;70041;46.088;18.268;2024-01-15T14:25:56;3.53;87.99
80676;SHT30;70041;46.088;18.268;2024-01-15T14:28:21;3.51;88.24
80676;SHT30;70041;46.088;18.268;2024-01-15T14:30:48;3.54;88.03
80676;SHT30;70041;46.088;18.268;2024-01-15T14:33:14;3.50;87.55
80676;SHT30;70041;46.088;18.268;2024-01-15T14:35:39;3.46;87.72
80676;SHT30;70041;46.088;18.268;2024-01-15T14:38:04;3.46;87.78
80676;SHT30;70041;46.088;18.268;2024-01-15T14:40:30;3.41;87.59
80676;SHT30;70041;46.088;18.268;2024-01-15T14:42:55;3.40;87.32
80676;SHT30;70041;46.088;18.268;2024-01-15T14:45:21;3.37;87.34
80676;SHT30;70041;46.088;18.268;2024-01-15T14:47:46;3.34;87.89
80676;SHT30;70041;46.088;18.268;2024-01-15T14:50:11;3.34;87.38
80676;SHT30;70041;46.088;18.268;2024-01-15T14:52:38;3.31;87.91
80676;SHT30;70041;46.088;18.268;2024-01-15T14:55:05;3.34;87.86
80676;SHT30;70041;46.088;18.268;2024-01-15T14:57:31;3.33;87.82
80676;SHT30;70041;46.088;18.268;2024-01-15T14:59:57;3.26;88.13
80676;SHT30;70041;46.088;18.268;2024-01-15T15:02:23;3.27;88.08
80676;SHT30;70041;46.088;18.268;2024-01-15T15:04:51;3.24;87.17
80676;SHT30;70041;46.088;18.268;2024-01-15T15:07:16;3.22;85.77
80676;SHT30;70041;46.088;18.268;2024-01-15T15:09:42;3.29;86.03
80676;SHT30;70041;46.088;18.268;2024-01-15T15:12:07;3.34;86.43
80676;SHT30;70041;46.088;18.268;2024-01-15T15:14:34;3.23;86.73
80676;SHT30;70041;46.088;18.268;2024-01-15T15:17:06;3.22;87.04
80676;SHT30;70041;46.088;18.268;2024-01-15T15:19:32;3.27;84.09
80676;SHT30;70041;46.088;18.268;2024-01-15T15:22:01;3.24;83.47
80676;SHT30;70041;46.088;18.268;2024-01-15T15:24:26;3.29;84.00
80676;SHT30;70041;46.088;18.268;2024-01-15T15:26:52;3.29;82.35
80676;SHT30;70041;46.088;18.268;2024-01-15T15:29:18;3.33;82.61
80676;SHT30;70041;46.088;18.268;2024-01-15T15:31:44;3.34;82.05
80676;SHT30;70041;46.088;18.268;2024-01-15T15:34:09;3.20;82.21
80676;SHT30;70041;46.088;18.268;2024-01-15T15:36:35;3.15;83.06